Terminal Aerodrome Forecast
Issued by NWS

Home | Current Version | Previous Version | Text Only | Print | Product List | Glossary On
Versions: 1 2 3 4 5 6 7 8 9 10 11 12 13 14 15 16 17 18 19 20
000
FTUS43 KIND 272059 AAB
TAFBMG
TAF AMD
KBMG 272059Z 2721/2818 30004KT P6SM VCSH SCT028 BKN035 BKN045
     FM280500 00000KT 4SM BR BKN025
     FM280800 00000KT 4SM BR OVC010
     FM281200 02004KT P6SM BKN008
     FM281600 02006KT P6SM BKN030=

USA.gov is the U.S. government's official web portal to all federal, state and local government web resources and services.